createdAt,value
2019-04-01T00:02:42.356Z,102896.05
2019-04-01T00:05:31.781Z,102899.58
2019-04-01T00:08:21.571Z,102897.83
2019-04-01T00:11:11.280Z,102894.28
2019-04-01T00:14:01.345Z,102892.06
2019-04-01T00:16:50.388Z,102895.17
2019-04-01T00:19:39.492Z,102894.27
2019-04-01T00:22:28.659Z,102890.75
2019-04-01T00:25:18.084Z,102889.40
2019-04-01T00:28:07.575Z,102893.38
2019-04-01T00:30:57.159Z,102895.59
2019-04-01T00:33:48.032Z,102894.27
2019-04-01T00:36:37.607Z,102894.72
2019-04-01T00:39:27.031Z,102892.08
2019-04-01T00:42:28.063Z,102892.05
2019-04-01T00:45:19.196Z,102892.50
2019-04-01T00:48:08.806Z,102888.94
2019-04-01T00:50:58.711Z,102890.27
2019-04-01T00:53:48.606Z,102893.83
2019-04-01T00:56:38.769Z,102887.16
2019-04-01T00:59:30.688Z,102889.81
2019-04-01T01:02:20.996Z,102880.08
2019-04-01T01:05:10.544Z,102887.62
2019-04-01T01:07:59.598Z,102883.15
2019-04-01T01:10:49.709Z,102878.26
2019-04-01T01:13:39.120Z,102873.83
2019-04-01T01:16:28.090Z,102872.50
2019-04-01T01:19:18.059Z,102877.35
2019-04-01T01:22:07.381Z,102872.05
2019-04-01T01:25:00.015Z,102870.72
2019-04-01T01:27:49.318Z,102868.06
2019-04-01T01:30:38.714Z,102853.89
2019-04-01T01:33:28.601Z,102851.69
2019-04-01T01:36:17.462Z,102856.98
2019-04-01T01:39:07.098Z,102849.45
2019-04-01T01:41:56.916Z,102848.58
2019-04-01T01:44:46.034Z,102847.25
2019-04-01T01:47:36.268Z,102837.97
2019-04-01T01:50:25.270Z,102837.52
2019-04-01T01:53:14.321Z,102844.14
2019-04-01T01:56:04.245Z,102843.22
2019-04-01T01:58:53.470Z,102835.72
2019-04-01T02:01:43.128Z,102839.66
2019-04-01T02:04:32.789Z,102829.96
2019-04-01T02:07:21.865Z,102831.70
2019-04-01T02:10:12.088Z,102828.59
2019-04-01T02:13:01.668Z,102833.47
2019-04-01T02:15:50.554Z,102828.58
2019-04-01T02:18:40.006Z,102827.25
2019-04-01T02:21:28.959Z,102828.98
2019-04-01T02:24:18.613Z,102826.34
2019-04-01T02:27:08.589Z,102827.65
2019-04-01T02:29:57.934Z,102817.50
2019-04-01T02:32:47.824Z,102809.96
2019-04-01T02:35:37.090Z,102816.13
2019-04-01T02:38:26.755Z,102813.92
2019-04-01T02:41:15.927Z,102803.78
2019-04-01T02:44:05.144Z,102801.55
2019-04-01T02:46:54.055Z,102805.06
2019-04-01T02:49:43.596Z,102807.28
2019-04-01T02:52:33.566Z,102801.52
2019-04-01T02:55:23.074Z,102801.94
2019-04-01T02:58:12.321Z,102801.92
2019-04-01T03:01:01.208Z,102809.86
2019-04-01T03:03:51.191Z,102801.47
2019-04-01T03:06:40.884Z,102804.10
2019-04-01T03:09:29.863Z,102800.58
2019-04-01T03:12:18.568Z,102797.47
2019-04-01T03:15:08.266Z,102792.58
2019-04-01T03:17:57.979Z,102793.90
2019-04-01T03:20:47.091Z,102797.41
2019-04-01T03:23:36.862Z,102788.58
2019-04-01T03:26:25.738Z,102785.92
2019-04-01T03:29:15.705Z,102779.72
2019-04-01T03:32:05.802Z,102779.30
2019-04-01T03:34:54.835Z,102782.80
2019-04-01T03:37:44.102Z,102784.98
2019-04-01T03:40:33.520Z,102775.70
2019-04-01T03:43:22.880Z,102772.59
2019-04-01T03:46:12.624Z,102768.17
2019-04-01T03:49:02.380Z,102778.33
2019-04-01T03:51:51.916Z,102773.89
2019-04-01T03:54:41.374Z,102774.75
2019-04-01T03:57:31.242Z,102768.59
2019-04-01T04:00:20.412Z,102766.34
2019-04-01T04:03:10.115Z,102768.53
2019-04-01T04:06:00.927Z,102761.45
2019-04-01T04:08:50.307Z,102762.77
2019-04-01T04:11:39.645Z,102763.20
2019-04-01T04:14:28.565Z,102760.53
2019-04-01T04:17:18.666Z,102755.25
2019-04-01T04:20:07.995Z,102755.23
2019-04-01T04:22:57.102Z,102757.42
2019-04-01T04:25:50.194Z,102752.53
2019-04-01T04:28:39.733Z,102748.09
2019-04-01T04:31:30.487Z,102749.84
2019-04-01T04:34:20.201Z,102750.25
2019-04-01T04:37:09.718Z,102747.59
2019-04-01T04:39:59.414Z,102741.42
2019-04-01T04:42:49.941Z,102748.02
2019-04-01T04:45:39.025Z,102747.56
2019-04-01T04:48:28.809Z,102736.51
2019-04-01T04:51:18.302Z,102740.92
2019-04-01T04:54:07.686Z,102745.29
2019-04-01T04:56:57.021Z,102732.50
2019-04-01T04:59:46.143Z,102738.66
2019-04-01T05:02:36.273Z,102738.64
2019-04-01T05:05:26.287Z,102734.20
2019-04-01T05:08:16.043Z,102735.50
2019-04-01T05:11:05.445Z,102729.77
2019-04-01T05:13:54.296Z,102734.16
2019-04-01T05:16:43.588Z,102725.77
2019-04-01T05:19:33.108Z,102732.83
2019-04-01T05:22:22.857Z,102720.47
2019-04-01T05:25:12.700Z,102720.00
2019-04-01T05:28:03.100Z,102717.80
2019-04-01T05:30:54.371Z,102725.27
2019-04-01T05:33:54.824Z,102721.28
2019-04-01T05:36:35.040Z,102725.66
2019-04-01T05:39:24.752Z,102729.20
2019-04-01T05:42:14.552Z,102726.56
2019-04-01T05:45:04.430Z,102730.07
2019-04-01T05:47:54.598Z,102731.84
2019-04-01T05:50:43.274Z,102731.83
2019-04-01T05:53:32.958Z,102731.36
2019-04-01T05:56:22.150Z,102722.11
2019-04-01T05:59:30.857Z,102726.08
2019-04-01T06:02:19.827Z,102725.22
2019-04-01T06:05:09.369Z,102728.28
2019-04-01T06:07:59.164Z,102725.22
2019-04-01T06:10:49.296Z,102726.98
2019-04-01T06:13:38.852Z,102724.78
2019-04-01T06:16:28.111Z,102731.00
2019-04-01T06:19:17.774Z,102724.81
2019-04-01T06:22:07.680Z,102723.50
2019-04-01T06:24:56.671Z,102725.73
2019-04-01T06:27:45.958Z,102716.03
2019-04-01T06:30:35.349Z,102720.48
2019-04-01T06:33:24.554Z,102730.20
2019-04-01T06:36:14.274Z,102723.62
2019-04-01T06:39:06.477Z,102718.81
2019-04-01T06:41:55.976Z,102724.11
2019-04-01T06:44:45.658Z,102712.69
2019-04-01T06:47:34.498Z,102716.25
2019-04-01T06:50:24.930Z,102717.60
2019-04-01T06:53:14.782Z,102714.59
2019-04-01T06:56:03.687Z,102713.27
2019-04-01T06:58:53.516Z,102709.33
2019-04-01T07:01:43.100Z,102703.20
2019-04-01T07:04:32.034Z,102701.95
2019-04-01T07:07:21.347Z,102699.77
2019-04-01T07:10:11.126Z,102679.48
2019-04-01T07:13:00.568Z,102688.36
2019-04-01T07:15:50.362Z,102688.41
2019-04-01T07:18:39.929Z,102689.30
2019-04-01T07:21:33.261Z,102681.83
2019-04-01T07:24:22.891Z,102682.32
2019-04-01T07:27:12.530Z,102679.22
2019-04-01T07:30:02.308Z,102677.94
2019-04-01T07:32:51.872Z,102670.89
2019-04-01T07:35:41.099Z,102677.09
2019-04-01T07:38:31.071Z,102666.48
2019-04-01T07:41:20.959Z,102672.69
2019-04-01T07:44:11.229Z,102662.52
2019-04-01T07:47:20.158Z,102664.28
2019-04-01T07:50:12.326Z,102661.64
2019-04-01T07:53:01.376Z,102654.55
2019-04-01T07:55:51.184Z,102648.80
2019-04-01T07:58:40.059Z,102650.56
2019-04-01T08:01:29.498Z,102653.17
2019-04-01T08:04:18.406Z,102650.03
2019-04-01T08:07:07.684Z,102640.73
2019-04-01T08:09:57.300Z,102645.09
2019-04-01T08:12:47.229Z,102643.28
2019-04-01T08:15:37.172Z,102639.27
2019-04-01T08:18:27.351Z,102635.19
2019-04-01T08:21:18.652Z,102639.58
2019-04-01T08:24:08.751Z,102638.16
2019-04-01T08:26:57.738Z,102642.95
2019-04-01T08:29:47.503Z,102637.11
2019-04-01T08:32:37.480Z,102634.34
2019-04-01T08:35:27.040Z,102636.00
2019-04-01T08:38:16.422Z,102627.92
2019-04-01T08:41:05.992Z,102618.88
2019-04-01T08:43:55.665Z,102612.52
2019-04-01T08:46:45.315Z,102613.66
2019-04-01T08:49:34.217Z,102613.05
2019-04-01T08:52:24.157Z,102611.98
2019-04-01T08:55:13.747Z,102614.83
2019-04-01T08:58:03.360Z,102611.47
2019-04-01T09:00:53.507Z,102607.62
2019-04-01T09:03:42.724Z,102606.44
2019-04-01T09:06:32.672Z,102606.09
2019-04-01T09:09:22.874Z,102604.38
2019-04-01T09:12:12.587Z,102608.01
2019-04-01T09:15:02.729Z,102598.31
2019-04-01T09:17:51.961Z,102587.69
2019-04-01T09:20:41.346Z,102589.53
2019-04-01T09:23:30.531Z,102577.53
2019-04-01T09:26:20.327Z,102575.37
2019-04-01T09:29:09.917Z,102580.29
2019-04-01T09:31:59.574Z,102575.00
2019-04-01T09:34:49.302Z,102562.11
2019-04-01T09:37:39.113Z,102565.64
2019-04-01T09:40:29.031Z,102563.38
2019-04-01T09:43:20.170Z,102559.33
2019-04-01T09:46:09.449Z,102555.34
2019-04-01T09:48:58.606Z,102550.36
2019-04-01T09:51:49.200Z,102552.06
2019-04-01T09:54:38.892Z,102542.97
2019-04-01T09:57:28.139Z,102536.06
2019-04-01T10:00:17.990Z,102536.91
2019-04-01T10:03:08.490Z,102531.52
2019-04-01T10:05:57.958Z,102530.94
2019-04-01T10:08:46.759Z,102526.44
2019-04-01T10:11:36.089Z,102525.52
2019-04-01T10:14:25.934Z,102517.36
2019-04-01T10:17:15.751Z,102509.10
2019-04-01T10:20:06.525Z,102503.95
2019-04-01T10:22:56.306Z,102502.64
2019-04-01T10:25:46.035Z,102499.89
2019-04-01T10:28:35.882Z,102497.59
2019-04-01T10:31:25.321Z,102485.56
2019-04-01T10:34:15.016Z,102474.80
2019-04-01T10:37:04.663Z,102471.11
2019-04-01T10:39:53.891Z,102468.34
2019-04-01T10:42:43.671Z,102457.31
2019-04-01T10:45:33.785Z,102452.70
2019-04-01T10:48:23.949Z,102456.28
2019-04-01T10:51:13.816Z,102445.83
2019-04-01T10:54:03.394Z,102439.82
2019-04-01T10:56:52.838Z,102435.93
2019-04-01T10:59:42.131Z,102428.20
2019-04-01T11:02:32.228Z,102424.49
2019-04-01T11:05:21.158Z,102420.93
2019-04-01T11:08:11.213Z,102409.13
2019-04-01T11:11:00.414Z,102405.68
2019-04-01T11:13:51.959Z,102399.55
2019-04-01T11:16:41.182Z,102400.23
2019-04-01T11:19:30.035Z,102412.73
2019-04-01T11:22:20.058Z,102395.44
2019-04-01T11:25:09.325Z,102401.50
2019-04-01T11:27:58.557Z,102394.55
2019-04-01T11:30:48.107Z,102398.34
2019-04-01T11:33:37.758Z,102393.56
2019-04-01T11:36:27.898Z,102381.52
2019-04-01T11:39:17.882Z,102381.48
2019-04-01T11:42:07.663Z,102373.69
2019-04-01T11:44:56.941Z,102363.33
2019-04-01T11:47:46.997Z,102372.73
2019-04-01T11:50:36.839Z,102371.67
2019-04-01T11:53:27.414Z,102364.88
2019-04-01T11:56:17.324Z,102360.12
2019-04-01T11:59:08.226Z,102351.02
2019-04-01T12:01:58.478Z,102348.16
2019-04-01T12:04:50.379Z,102341.10
2019-04-01T12:07:40.196Z,102342.78
2019-04-01T12:10:30.234Z,102334.30
2019-04-01T12:13:19.431Z,102336.16
2019-04-01T12:16:09.663Z,102328.55
2019-04-01T12:18:58.550Z,102335.34
2019-04-01T12:21:49.718Z,102323.12
2019-04-01T12:24:40.289Z,102327.58
2019-04-01T12:27:29.623Z,102308.65
2019-04-01T12:30:19.464Z,102303.98
2019-04-01T12:33:09.063Z,102298.06
2019-04-01T12:35:59.504Z,102304.70
2019-04-01T12:38:49.513Z,102295.61
2019-04-01T12:41:38.986Z,102287.63
2019-04-01T12:44:28.153Z,102291.16
2019-04-01T12:47:17.254Z,102287.72
2019-04-01T12:50:08.172Z,102271.88
2019-04-01T12:52:57.652Z,102263.56
2019-04-01T12:55:48.239Z,102259.08
2019-04-01T12:58:38.325Z,102258.88
2019-04-01T13:01:30.071Z,102242.19
2019-04-01T13:04:19.649Z,102233.10
2019-04-01T13:07:09.001Z,102233.98
2019-04-01T13:09:58.279Z,102235.48
2019-04-01T13:12:48.295Z,102226.45
2019-04-01T13:15:38.303Z,102227.19
2019-04-01T13:18:27.691Z,102220.88
2019-04-01T13:21:17.831Z,102212.16
2019-04-01T13:24:07.545Z,102211.73
2019-04-01T13:26:57.523Z,102206.39
2019-04-01T13:29:46.410Z,102195.73
2019-04-01T13:32:36.429Z,102193.89
2019-04-01T13:35:26.407Z,102190.27
2019-04-01T13:38:15.959Z,102184.93
2019-04-01T13:41:05.672Z,102180.26
2019-04-01T13:43:55.674Z,102171.67
2019-04-01T13:46:48.436Z,102178.73
2019-04-01T13:49:38.408Z,102172.23
2019-04-01T13:52:28.403Z,102161.31
2019-04-01T13:55:19.424Z,102167.52
2019-04-01T13:58:11.102Z,102152.42
2019-04-01T14:01:01.490Z,102152.77
2019-04-01T14:03:51.107Z,102142.24
2019-04-01T14:06:40.728Z,102138.11
2019-04-01T14:09:30.929Z,102134.13
2019-04-01T14:12:20.831Z,102137.59
2019-04-01T14:15:11.138Z,102133.22
2019-04-01T14:18:00.789Z,102123.28
2019-04-01T14:20:50.507Z,102122.88
2019-04-01T14:23:39.642Z,102119.78
2019-04-01T14:26:29.113Z,102106.87
2019-04-01T14:29:18.062Z,102099.30
2019-04-01T14:32:07.541Z,102100.39
2019-04-01T14:34:56.706Z,102098.05
2019-04-01T14:37:47.324Z,102092.45
2019-04-01T14:40:39.829Z,102079.80
2019-04-01T14:43:33.079Z,102086.11
2019-04-01T14:46:22.754Z,102077.45
2019-04-01T14:49:15.345Z,102062.92
2019-04-01T14:52:07.955Z,102062.08
2019-04-01T14:54:59.151Z,102056.48
2019-04-01T14:57:51.568Z,102053.24
2019-04-01T15:00:43.234Z,102054.47
2019-04-01T15:03:34.328Z,102040.73
2019-04-01T15:06:24.499Z,102045.30
2019-04-01T15:09:15.016Z,102039.22
2019-04-01T15:12:04.318Z,102036.50
2019-04-01T15:14:54.508Z,102033.39
2019-04-01T15:17:44.029Z,102025.83
2019-04-01T15:20:33.751Z,102023.23
2019-04-01T15:23:25.112Z,102024.25
2019-04-01T15:26:15.989Z,102015.32
2019-04-01T15:29:06.048Z,102006.29
2019-04-01T15:31:55.954Z,101997.97
2019-04-01T15:34:57.900Z,101990.63
2019-04-01T15:37:48.296Z,101992.00
2019-04-01T15:40:40.760Z,101990.88
2019-04-01T15:43:31.028Z,101980.70
2019-04-01T15:46:20.880Z,101973.95
2019-04-01T15:49:11.440Z,101971.83
2019-04-01T15:52:01.124Z,101965.24
2019-04-01T15:54:50.464Z,101962.61
2019-04-01T15:57:40.876Z,101955.65
2019-04-01T16:00:31.994Z,101953.16
2019-04-01T16:03:21.783Z,101946.19
2019-04-01T16:06:10.825Z,101936.78
2019-04-01T16:09:00.672Z,101933.02
2019-04-01T16:11:53.845Z,101926.20
2019-04-01T16:14:42.106Z,101923.76
2019-04-01T16:17:31.543Z,101918.58
2019-04-01T16:20:21.206Z,101922.44
2019-04-01T16:23:10.343Z,101920.64
2019-04-01T16:26:00.408Z,101923.62
2019-04-01T16:28:49.391Z,101919.85
2019-04-01T16:31:39.145Z,101920.68
2019-04-01T16:34:28.402Z,101913.78
2019-04-01T16:37:17.744Z,101909.22
2019-04-01T16:40:07.790Z,101912.83
2019-04-01T16:42:57.893Z,101905.27
2019-04-01T16:45:47.890Z,101906.20
2019-04-01T16:48:38.300Z,101911.68
2019-04-01T16:51:27.768Z,101905.05
2019-04-01T16:54:17.145Z,101901.88
2019-04-01T16:57:06.872Z,101903.70
2019-04-01T16:59:56.286Z,101894.05
2019-04-01T17:02:46.917Z,101895.36
2019-04-01T17:05:36.829Z,101888.77
2019-04-01T17:08:29.547Z,101891.28
2019-04-01T17:11:17.352Z,101883.39
2019-04-01T17:14:09.201Z,101883.42
2019-04-01T17:16:58.506Z,101878.13
2019-04-01T17:19:48.237Z,101887.41
2019-04-01T17:22:37.859Z,101877.87
2019-04-01T17:25:26.874Z,101873.34
2019-04-01T17:28:15.998Z,101877.30
2019-04-01T17:31:05.853Z,101871.42
2019-04-01T17:33:55.627Z,101873.78
2019-04-01T17:36:45.610Z,101865.16
2019-04-01T17:39:36.975Z,101869.08
2019-04-01T17:42:26.275Z,101868.42
2019-04-01T17:45:43.813Z,101863.07
2019-04-01T17:48:33.276Z,101862.91
2019-04-01T17:51:22.831Z,101862.91
2019-04-01T17:54:12.421Z,101861.59
2019-04-01T17:57:02.115Z,101852.05
2019-04-01T17:59:51.017Z,101857.77
2019-04-01T18:02:40.880Z,101853.98
2019-04-01T18:05:30.328Z,101844.36
2019-04-01T18:08:24.654Z,101842.16
2019-04-01T18:11:16.187Z,101851.30
2019-04-01T18:14:06.207Z,101845.98
2019-04-01T18:16:55.674Z,101846.22
2019-04-01T18:19:45.825Z,101841.94
2019-04-01T18:22:35.710Z,101838.05
2019-04-01T18:25:26.594Z,101845.59
2019-04-01T18:28:20.146Z,101846.23
2019-04-01T18:31:10.897Z,101837.50
2019-04-01T18:34:03.518Z,101844.07
2019-04-01T18:36:53.589Z,101845.61
2019-04-01T18:39:48.444Z,101849.83
2019-04-01T18:42:37.053Z,101855.92
2019-04-01T18:45:26.576Z,101855.23
2019-04-01T18:48:15.318Z,101853.77
2019-04-01T18:51:06.025Z,101855.76
2019-04-01T18:53:55.970Z,101853.25
2019-04-01T18:56:47.580Z,101848.05
2019-04-01T18:59:35.850Z,101843.70
2019-04-01T19:02:25.892Z,101839.81
2019-04-01T19:05:15.586Z,101832.73
2019-04-01T19:08:04.983Z,101827.03
2019-04-01T19:11:02.077Z,101830.36
2019-04-01T19:13:45.917Z,101834.45
2019-04-01T19:16:35.481Z,101827.40
2019-04-01T19:19:24.552Z,101826.16
2019-04-01T19:22:13.424Z,101824.47
2019-04-01T19:25:02.481Z,101819.07
2019-04-01T19:27:51.674Z,101817.37
2019-04-01T19:30:43.337Z,101815.59
2019-04-01T19:33:33.454Z,101821.89
2019-04-01T19:36:23.227Z,101817.83
2019-04-01T19:39:14.188Z,101818.69
2019-04-01T19:42:03.091Z,101816.00
2019-04-01T19:44:53.531Z,101814.68
2019-04-01T19:47:44.967Z,101813.28
2019-04-01T19:50:36.491Z,101817.26
2019-04-01T19:53:26.657Z,101814.96
2019-04-01T19:56:16.192Z,101805.11
2019-04-01T19:59:05.758Z,101805.05
2019-04-01T20:01:58.375Z,101798.76
2019-04-01T20:04:48.682Z,101794.60
2019-04-01T20:07:40.934Z,101796.73
2019-04-01T20:10:29.971Z,101793.56
2019-04-01T20:13:19.212Z,101785.38
2019-04-01T20:16:10.194Z,101787.98
2019-04-01T20:19:00.196Z,101787.35
2019-04-01T20:21:50.264Z,101778.31
2019-04-01T20:24:39.532Z,101778.12
2019-04-01T20:27:31.978Z,101780.17
2019-04-01T20:30:21.313Z,101780.49
2019-04-01T20:33:17.730Z,101781.61
2019-04-01T20:36:02.352Z,101774.79
2019-04-01T20:38:52.697Z,101771.44
2019-04-01T20:41:41.853Z,101772.62
2019-04-01T20:44:31.177Z,101771.11
2019-04-01T20:47:21.217Z,101765.47
2019-04-01T20:50:10.767Z,101757.70
2019-04-01T20:53:04.594Z,101757.91
2019-04-01T20:55:53.840Z,101755.98
2019-04-01T20:58:44.870Z,101750.88
2019-04-01T21:01:35.335Z,101751.98
2019-04-01T21:04:27.123Z,101749.61
2019-04-01T21:07:36.694Z,101746.76
2019-04-01T21:10:26.228Z,101745.63
2019-04-01T21:13:18.361Z,101745.06
2019-04-01T21:16:07.741Z,101733.17
2019-04-01T21:18:56.603Z,101728.57
2019-04-01T21:21:47.995Z,101725.69
2019-04-01T21:24:37.844Z,101726.30
2019-04-01T21:27:27.470Z,101728.25
2019-04-01T21:30:19.141Z,101716.47
2019-04-01T21:33:10.253Z,101707.25
2019-04-01T21:35:59.214Z,101703.91
2019-04-01T21:38:50.422Z,101696.08
2019-04-01T21:41:41.500Z,101688.67
2019-04-01T21:44:33.410Z,101687.56
2019-04-01T21:47:23.084Z,101685.56
2019-04-01T21:50:12.929Z,101681.30
2019-04-01T21:53:04.079Z,101681.89
2019-04-01T21:55:54.152Z,101674.13
2019-04-01T21:58:43.617Z,101673.81
2019-04-01T22:01:32.885Z,101664.64
2019-04-01T22:04:22.081Z,101663.91
2019-04-01T22:07:14.863Z,101661.45
2019-04-01T22:10:04.126Z,101653.72
2019-04-01T22:12:56.504Z,101650.37
2019-04-01T22:15:50.177Z,101645.14
2019-04-01T22:18:42.870Z,101636.87
2019-04-01T22:21:34.603Z,101635.66
2019-04-01T22:24:26.030Z,101635.39
2019-04-01T22:27:17.161Z,101632.91
2019-04-01T22:30:13.013Z,101633.00
2019-04-01T22:33:03.598Z,101626.08
2019-04-01T22:35:53.417Z,101623.09
2019-04-01T22:38:47.599Z,101615.25
2019-04-01T22:41:38.041Z,101616.69
2019-04-01T22:44:29.133Z,101607.14
2019-04-01T22:47:19.015Z,101601.44
2019-04-01T22:50:10.258Z,101598.03
2019-04-01T22:53:00.620Z,101595.47
2019-04-01T22:55:50.599Z,101588.10
2019-04-01T22:58:40.052Z,101592.16
2019-04-01T23:01:29.830Z,101590.98
2019-04-01T23:04:19.285Z,101584.94
2019-04-01T23:07:08.819Z,101571.79
2019-04-01T23:09:58.669Z,101571.03
2019-04-01T23:12:48.399Z,101564.91
2019-04-01T23:15:37.913Z,101558.86
2019-04-01T23:18:28.260Z,101562.92
2019-04-01T23:21:17.635Z,101555.55
2019-04-01T23:24:07.123Z,101558.28
2019-04-01T23:26:56.900Z,101550.36
2019-04-01T23:29:46.242Z,101545.65
2019-04-01T23:32:35.455Z,101540.38
2019-04-01T23:35:24.243Z,101542.28
2019-04-01T23:38:13.345Z,101529.12
2019-04-01T23:41:02.232Z,101533.64
2019-04-01T23:43:51.893Z,101529.33
2019-04-01T23:46:40.675Z,101517.91
2019-04-01T23:49:29.404Z,101521.11
2019-04-01T23:52:18.535Z,101510.98
2019-04-01T23:55:07.853Z,101508.85
2019-04-01T23:57:56.763Z,101502.30
